createdAt,value
2022-09-26T00:01:20.740Z,842.00
2022-09-26T00:03:49.884Z,837.67
2022-09-26T00:06:20.430Z,843.07
2022-09-26T00:08:50.146Z,840.43
2022-09-26T00:11:20.593Z,836.47
2022-09-26T00:13:48.892Z,834.23
2022-09-26T00:16:17.431Z,830.33
2022-09-26T00:18:49.264Z,841.77
2022-09-26T00:21:17.711Z,840.13
2022-09-26T00:23:45.983Z,836.33
2022-09-26T00:26:15.508Z,851.70
2022-09-26T00:28:43.872Z,836.30
2022-09-26T00:31:13.912Z,836.47
2022-09-26T00:33:42.212Z,847.20
2022-09-26T00:36:11.721Z,836.37
2022-09-26T00:38:40.992Z,843.30
2022-09-26T00:41:09.423Z,834.43
2022-09-26T00:43:39.971Z,838.17
2022-09-26T00:46:26.718Z,837.07
2022-09-26T00:49:00.573Z,837.87
2022-09-26T00:51:30.030Z,835.00
2022-09-26T00:53:58.231Z,839.20
2022-09-26T00:56:30.278Z,831.53
2022-09-26T00:59:03.072Z,839.97
2022-09-26T01:01:31.229Z,846.47
2022-09-26T01:03:59.813Z,850.70
2022-09-26T01:06:29.241Z,839.43
2022-09-26T01:09:00.408Z,841.40
2022-09-26T01:11:31.976Z,843.73
2022-09-26T01:14:00.189Z,841.83
2022-09-26T01:16:28.343Z,848.40
2022-09-26T01:18:56.587Z,845.10
2022-09-26T01:21:49.407Z,845.73
2022-09-26T01:24:39.877Z,842.13
2022-09-26T01:27:31.132Z,840.07
2022-09-26T01:30:06.980Z,844.27
2022-09-26T01:33:16.725Z,838.90
2022-09-26T01:35:57.332Z,841.10
2022-09-26T01:38:35.698Z,847.17
2022-09-26T01:41:18.555Z,849.67
2022-09-26T01:43:52.423Z,843.73
2022-09-26T01:46:28.928Z,854.83
2022-09-26T01:49:01.933Z,854.77
2022-09-26T01:51:34.749Z,856.50
2022-09-26T01:54:05.486Z,849.93
2022-09-26T01:56:36.676Z,849.97
2022-09-26T01:59:07.608Z,852.03
2022-09-26T02:01:41.100Z,853.03
2022-09-26T02:04:11.722Z,851.90
2022-09-26T02:06:43.516Z,847.50
2022-09-26T02:09:13.378Z,852.30
2022-09-26T02:11:44.677Z,852.90
2022-09-26T02:14:17.338Z,854.37
2022-09-26T02:16:48.898Z,855.73
2022-09-26T02:19:20.763Z,851.33
2022-09-26T02:21:48.963Z,856.13
2022-09-26T02:24:18.563Z,855.47
2022-09-26T02:26:46.600Z,849.73
2022-09-26T02:29:15.314Z,849.97
2022-09-26T02:31:49.227Z,849.97
2022-09-26T02:34:17.474Z,852.50
2022-09-26T02:36:46.286Z,855.70
2022-09-26T02:39:14.383Z,851.67
2022-09-26T02:41:57.385Z,850.73
2022-09-26T02:44:38.651Z,852.47
2022-09-26T02:47:20.496Z,851.40
2022-09-26T02:50:08.881Z,847.53
2022-09-26T02:52:41.985Z,840.07
2022-09-26T02:55:16.614Z,843.50
2022-09-26T02:57:50.957Z,844.23
2022-09-26T03:00:21.944Z,846.63
2022-09-26T03:02:58.137Z,841.53
2022-09-26T03:05:28.016Z,842.37
2022-09-26T03:07:59.462Z,845.30
2022-09-26T03:10:29.504Z,844.40
2022-09-26T03:13:02.584Z,838.73
2022-09-26T03:15:31.006Z,842.07
2022-09-26T03:18:02.658Z,833.60
2022-09-26T03:20:31.032Z,835.40
2022-09-26T03:22:58.967Z,833.57
2022-09-26T03:25:28.825Z,830.27
2022-09-26T03:28:05.686Z,828.70
2022-09-26T03:30:34.529Z,828.57
2022-09-26T03:33:32.845Z,826.17
2022-09-26T03:36:00.870Z,827.47
2022-09-26T03:38:28.945Z,834.00
2022-09-26T03:41:11.023Z,823.57
2022-09-26T03:43:57.713Z,834.33
2022-09-26T03:46:37.562Z,826.70
2022-09-26T03:49:09.195Z,828.63
2022-09-26T03:51:37.331Z,823.13
2022-09-26T03:54:05.540Z,829.40
2022-09-26T03:56:33.630Z,830.47
2022-09-26T03:59:01.600Z,828.97
2022-09-26T04:01:29.819Z,826.80
2022-09-26T04:03:58.027Z,830.43
2022-09-26T04:06:27.737Z,824.83
2022-09-26T04:08:55.738Z,831.77
2022-09-26T04:11:24.799Z,832.97
2022-09-26T04:13:54.173Z,833.97
2022-09-26T04:16:27.445Z,828.77
2022-09-26T04:19:02.466Z,831.17
2022-09-26T04:21:35.339Z,834.23
2022-09-26T04:24:03.615Z,834.80
2022-09-26T04:26:31.992Z,832.77
2022-09-26T04:29:00.275Z,830.53
2022-09-26T04:31:48.477Z,836.77
2022-09-26T04:34:26.221Z,837.97
2022-09-26T04:36:57.262Z,844.27
2022-09-26T04:39:25.960Z,835.13
2022-09-26T04:41:54.484Z,839.87
2022-09-26T04:44:22.704Z,834.63
2022-09-26T04:46:50.680Z,837.67
2022-09-26T04:49:21.612Z,842.17
2022-09-26T04:51:49.868Z,834.83
2022-09-26T04:54:19.272Z,846.13
2022-09-26T04:56:48.060Z,842.40
2022-09-26T04:59:16.135Z,840.03
2022-09-26T05:02:01.480Z,840.40
2022-09-26T05:04:36.024Z,838.30
2022-09-26T05:07:04.123Z,842.83
2022-09-26T05:09:36.353Z,840.67
2022-09-26T05:12:34.055Z,842.70
2022-09-26T05:15:02.118Z,846.67
2022-09-26T05:17:31.073Z,840.80
2022-09-26T05:20:02.224Z,842.13
2022-09-26T05:22:42.341Z,841.87
2022-09-26T05:25:29.370Z,849.00
2022-09-26T05:27:57.417Z,840.67
2022-09-26T05:30:25.839Z,842.40
2022-09-26T05:32:54.532Z,834.60
2022-09-26T05:35:23.558Z,842.30
2022-09-26T05:37:59.458Z,838.43
2022-09-26T05:40:49.514Z,828.07
2022-09-26T05:43:17.610Z,829.83
2022-09-26T05:45:50.824Z,831.07
2022-09-26T05:48:22.891Z,831.43
2022-09-26T05:50:51.365Z,837.63
2022-09-26T05:53:19.405Z,828.47
2022-09-26T05:55:51.689Z,821.67
2022-09-26T05:58:32.280Z,826.37
2022-09-26T06:01:19.483Z,820.50
2022-09-26T06:03:54.364Z,829.07
2022-09-26T06:06:27.932Z,826.73
2022-09-26T06:09:03.689Z,827.60
2022-09-26T06:11:51.471Z,818.17
2022-09-26T06:14:19.377Z,821.73
2022-09-26T06:16:47.451Z,814.57
2022-09-26T06:19:18.438Z,815.97
2022-09-26T06:21:50.083Z,811.13
2022-09-26T06:24:20.321Z,811.47
2022-09-26T06:26:53.099Z,805.73
2022-09-26T06:29:21.004Z,806.47
2022-09-26T06:31:49.395Z,812.33
2022-09-26T06:34:43.510Z,801.03
2022-09-26T06:37:31.634Z,806.57
2022-09-26T06:40:01.569Z,806.50
2022-09-26T06:42:37.984Z,803.63
2022-09-26T06:45:19.190Z,797.80
2022-09-26T06:48:05.566Z,792.13
2022-09-26T06:50:54.066Z,801.83
2022-09-26T06:53:22.373Z,802.17
2022-09-26T06:55:50.526Z,801.23
2022-09-26T06:58:20.048Z,803.57
2022-09-26T07:01:00.977Z,795.40
2022-09-26T07:03:47.773Z,793.67
2022-09-26T07:06:32.946Z,791.70
2022-09-26T07:09:04.093Z,798.43
2022-09-26T07:14:42.417Z,788.60
2022-09-26T07:17:31.174Z,794.37
2022-09-26T07:19:59.269Z,789.40
2022-09-26T07:22:45.789Z,782.83
2022-09-26T07:25:14.937Z,785.90
2022-09-26T07:27:42.992Z,785.83
2022-09-26T07:30:13.994Z,776.90
2022-09-26T07:32:52.307Z,775.87
2022-09-26T07:35:35.481Z,766.73
2022-09-26T07:38:05.141Z,766.53
2022-09-26T07:40:33.797Z,770.73
2022-09-26T07:46:12.579Z,761.70
2022-09-26T07:49:01.349Z,759.93
2022-09-26T07:51:56.021Z,756.93
2022-09-26T07:54:28.489Z,765.97
2022-09-26T07:57:17.045Z,776.30
2022-09-26T08:00:09.578Z,774.47
2022-09-26T08:02:52.716Z,766.90
2022-09-26T08:05:21.214Z,775.20
2022-09-26T08:07:50.705Z,773.13
2022-09-26T08:10:38.614Z,764.30
2022-09-26T08:13:25.075Z,764.20
2022-09-26T08:16:19.585Z,762.33
2022-09-26T08:18:50.029Z,758.27
2022-09-26T08:21:19.276Z,758.90
2022-09-26T08:23:47.812Z,758.73
2022-09-26T08:26:44.181Z,771.27
2022-09-26T08:29:22.085Z,767.93
2022-09-26T08:31:54.783Z,775.10
2022-09-26T08:34:25.804Z,762.83
2022-09-26T08:37:16.923Z,774.17
2022-09-26T08:40:17.092Z,781.73
2022-09-26T08:43:07.735Z,792.23
2022-09-26T08:46:43.040Z,776.90
2022-09-26T08:49:40.682Z,784.07
2022-09-26T08:52:22.146Z,779.97
2022-09-26T08:54:50.490Z,791.63
2022-09-26T08:57:31.767Z,792.30
2022-09-26T08:59:59.966Z,794.10
2022-09-26T09:02:32.894Z,799.40
2022-09-26T09:05:10.070Z,795.77
2022-09-26T09:07:42.677Z,800.87
2022-09-26T09:10:30.037Z,787.67
2022-09-26T09:13:13.466Z,778.47
2022-09-26T09:16:12.137Z,792.17
2022-09-26T09:19:13.962Z,796.17
2022-09-26T09:22:23.539Z,795.67
2022-09-26T09:25:16.001Z,798.87
2022-09-26T09:28:00.053Z,808.20
2022-09-26T09:30:33.866Z,813.13
2022-09-26T09:33:38.250Z,814.93
2022-09-26T09:36:33.422Z,806.40
2022-09-26T09:39:24.317Z,803.73
2022-09-26T09:42:04.952Z,816.10
2022-09-26T09:44:46.415Z,820.73
2022-09-26T09:47:16.199Z,808.63
2022-09-26T09:49:45.201Z,810.13
2022-09-26T09:52:47.570Z,816.50
2022-09-26T09:55:32.494Z,817.67
2022-09-26T09:58:12.223Z,818.93
2022-09-26T10:00:47.784Z,820.97
2022-09-26T10:03:27.604Z,822.87
2022-09-26T10:05:59.699Z,811.77
2022-09-26T10:08:36.676Z,821.43
2022-09-26T10:11:23.046Z,817.37
2022-09-26T10:14:01.948Z,818.80
2022-09-26T10:17:18.121Z,819.20
2022-09-26T10:19:52.631Z,816.27
2022-09-26T10:22:32.666Z,829.40
2022-09-26T10:25:05.132Z,832.03
2022-09-26T10:27:38.080Z,836.63
2022-09-26T10:30:21.734Z,837.57
2022-09-26T10:32:56.422Z,833.13
2022-09-26T10:35:46.410Z,818.10
2022-09-26T10:38:22.008Z,823.10
2022-09-26T10:40:59.643Z,823.17
2022-09-26T10:43:32.122Z,823.93
2022-09-26T10:46:10.197Z,824.30
2022-09-26T10:49:02.013Z,825.37
2022-09-26T10:51:51.927Z,816.80
2022-09-26T10:54:23.340Z,826.33
2022-09-26T10:56:59.245Z,822.73
2022-09-26T10:59:34.581Z,821.33
2022-09-26T11:02:03.953Z,826.87
2022-09-26T11:04:52.824Z,814.40
2022-09-26T11:07:42.456Z,812.13
2022-09-26T11:10:48.860Z,808.47
2022-09-26T11:13:23.182Z,811.33
2022-09-26T11:16:09.901Z,815.57
2022-09-26T11:18:48.861Z,807.37
2022-09-26T11:21:28.923Z,816.57
2022-09-26T11:24:04.946Z,823.30
2022-09-26T11:26:35.782Z,810.47
2022-09-26T11:29:13.432Z,810.30
2022-09-26T11:32:05.644Z,803.17
2022-09-26T11:35:03.566Z,804.67
2022-09-26T11:38:08.307Z,793.60
2022-09-26T11:40:47.973Z,779.73
2022-09-26T11:43:30.657Z,781.70
2022-09-26T11:46:18.563Z,778.80
2022-09-26T11:49:43.010Z,772.17
2022-09-26T11:52:21.555Z,773.77
2022-09-26T11:54:58.815Z,774.17
2022-09-26T11:57:36.471Z,783.27
2022-09-26T12:00:12.029Z,768.70
2022-09-26T12:02:56.014Z,784.60
2022-09-26T12:05:34.272Z,768.77
2022-09-26T12:08:22.062Z,778.63
2022-09-26T12:11:00.356Z,774.97
2022-09-26T12:13:38.007Z,769.47
2022-09-26T12:16:12.647Z,777.93
2022-09-26T12:18:49.351Z,774.87
2022-09-26T12:21:27.224Z,768.70
2022-09-26T12:23:56.742Z,774.40
2022-09-26T12:26:35.036Z,773.70
2022-09-26T12:29:16.209Z,779.03
2022-09-26T12:31:53.209Z,777.83
2022-09-26T12:34:38.427Z,768.93
2022-09-26T12:37:16.140Z,769.33
2022-09-26T12:40:00.693Z,764.07
2022-09-26T12:42:39.307Z,756.23
2022-09-26T12:45:43.710Z,768.23
2022-09-26T12:48:29.576Z,757.40
2022-09-26T12:51:10.381Z,771.50
2022-09-26T12:53:55.779Z,774.27
2022-09-26T12:56:38.159Z,771.47
2022-09-26T12:59:16.792Z,764.53
2022-09-26T13:02:00.735Z,772.57
2022-09-26T13:04:39.209Z,768.90
2022-09-26T13:07:19.346Z,758.60
2022-09-26T13:10:23.047Z,776.60
2022-09-26T13:13:08.325Z,769.53
2022-09-26T13:15:44.695Z,784.37
2022-09-26T13:18:17.418Z,785.73
2022-09-26T13:20:47.135Z,780.00
2022-09-26T13:23:21.463Z,793.40
2022-09-26T13:25:53.996Z,800.63
2022-09-26T13:28:25.703Z,816.47
2022-09-26T13:30:58.022Z,827.50
2022-09-26T13:33:29.523Z,825.73
2022-09-26T13:35:58.088Z,821.67
2022-09-26T13:38:39.107Z,822.03
2022-09-26T13:41:31.117Z,821.00
2022-09-26T13:44:06.862Z,818.93
2022-09-26T13:46:41.649Z,827.70
2022-09-26T13:49:27.400Z,833.53
2022-09-26T13:52:08.304Z,828.23
2022-09-26T13:54:54.006Z,833.30
2022-09-26T13:57:32.628Z,837.23
2022-09-26T14:00:01.972Z,838.73
2022-09-26T14:02:33.016Z,849.47
2022-09-26T14:05:30.022Z,848.10
2022-09-26T14:08:15.589Z,847.43
2022-09-26T14:10:53.970Z,845.63
2022-09-26T14:13:33.831Z,857.43
2022-09-26T14:16:03.680Z,865.00
2022-09-26T14:18:48.624Z,878.33
2022-09-26T14:21:32.870Z,878.80
2022-09-26T14:24:22.782Z,888.60
2022-09-26T14:26:53.145Z,880.70
2022-09-26T14:29:35.424Z,885.23
2022-09-26T14:32:05.601Z,897.87
2022-09-26T14:34:39.510Z,898.67
2022-09-26T14:37:28.789Z,900.43
2022-09-26T14:40:04.050Z,893.27
2022-09-26T14:42:35.184Z,886.20
2022-09-26T14:45:06.825Z,884.10
2022-09-26T14:47:40.660Z,878.80
2022-09-26T14:50:16.103Z,872.83
2022-09-26T14:52:52.315Z,860.93
2022-09-26T14:55:20.772Z,861.40
2022-09-26T14:57:50.744Z,860.33
2022-09-26T15:00:39.579Z,862.70
2022-09-26T15:03:09.108Z,854.20
2022-09-26T15:05:37.271Z,864.37
2022-09-26T15:08:05.541Z,860.60
2022-09-26T15:10:40.158Z,862.30
2022-09-26T15:13:20.956Z,861.03
2022-09-26T15:15:56.042Z,860.80
2022-09-26T15:18:32.361Z,857.33
2022-09-26T15:21:05.053Z,863.87
2022-09-26T15:23:34.964Z,859.77
2022-09-26T15:26:03.845Z,861.47
2022-09-26T15:28:34.774Z,853.07
2022-09-26T15:31:33.734Z,861.83
2022-09-26T15:34:04.324Z,851.23
2022-09-26T15:36:35.293Z,861.93
2022-09-26T15:39:26.348Z,858.43
2022-09-26T15:42:11.817Z,867.43
2022-09-26T15:44:47.986Z,859.07
2022-09-26T15:47:27.958Z,871.73
2022-09-26T15:50:04.811Z,872.97
2022-09-26T15:52:35.304Z,868.17
2022-09-26T15:55:04.184Z,869.47
2022-09-26T15:57:32.544Z,869.13
2022-09-26T16:00:01.534Z,872.73
2022-09-26T16:02:36.487Z,865.27
2022-09-26T16:05:06.108Z,870.10
2022-09-26T16:07:37.779Z,862.27
2022-09-26T16:10:07.277Z,862.80
2022-09-26T16:12:41.870Z,861.80
2022-09-26T16:15:17.870Z,869.73
2022-09-26T16:17:53.764Z,868.53
2022-09-26T16:20:26.492Z,865.27
2022-09-26T16:23:00.313Z,873.27
2022-09-26T16:25:35.442Z,871.97
2022-09-26T16:28:22.730Z,865.40
2022-09-26T16:31:14.846Z,870.60
2022-09-26T16:33:52.211Z,869.73
2022-09-26T16:36:23.658Z,874.93
2022-09-26T16:38:53.607Z,871.07
2022-09-26T16:41:56.164Z,879.70
2022-09-26T16:44:26.191Z,872.47
2022-09-26T16:46:58.948Z,878.53
2022-09-26T16:49:49.636Z,885.80
2022-09-26T16:52:26.558Z,880.87
2022-09-26T16:54:55.457Z,882.37
2022-09-26T16:57:26.740Z,886.30
2022-09-26T17:00:15.622Z,889.90
2022-09-26T17:02:42.887Z,890.50
2022-09-26T17:05:18.763Z,886.83
2022-09-26T17:07:47.891Z,891.07
2022-09-26T17:10:16.500Z,896.03
2022-09-26T17:12:48.980Z,898.17
2022-09-26T17:15:20.330Z,895.13
2022-09-26T17:17:48.802Z,896.67
2022-09-26T17:20:18.391Z,895.67
2022-09-26T17:22:46.482Z,894.93
2022-09-26T17:25:14.723Z,891.47
2022-09-26T17:27:43.953Z,891.90
2022-09-26T17:30:18.002Z,900.40
2022-09-26T17:32:49.702Z,902.57
2022-09-26T17:35:24.596Z,898.73
2022-09-26T17:37:52.820Z,913.00
2022-09-26T17:40:24.025Z,903.30
2022-09-26T17:42:55.335Z,898.33
2022-09-26T17:45:28.580Z,898.23
2022-09-26T17:47:58.824Z,893.87
2022-09-26T17:50:30.042Z,897.17
2022-09-26T17:52:59.028Z,900.20
2022-09-26T17:55:27.424Z,901.27
2022-09-26T17:57:56.885Z,892.53
2022-09-26T18:00:25.842Z,899.40
2022-09-26T18:02:56.044Z,898.43
2022-09-26T18:05:26.417Z,902.93
2022-09-26T18:07:58.717Z,917.33
2022-09-26T18:10:30.498Z,906.40
2022-09-26T18:13:00.580Z,905.20
2022-09-26T18:15:29.534Z,910.43
2022-09-26T18:17:58.944Z,910.33
2022-09-26T18:20:36.140Z,908.23
2022-09-26T18:23:06.628Z,913.47
2022-09-26T18:25:37.202Z,913.20
2022-09-26T18:28:08.070Z,905.93
2022-09-26T18:30:36.369Z,912.77
2022-09-26T18:33:05.809Z,909.03
2022-09-26T18:35:33.942Z,908.97
2022-09-26T18:38:02.384Z,906.87
2022-09-26T18:40:31.918Z,906.83
2022-09-26T18:43:00.128Z,915.73
2022-09-26T18:45:29.911Z,920.60
2022-09-26T18:47:58.026Z,916.13
2022-09-26T18:50:30.378Z,906.87
2022-09-26T18:52:58.833Z,904.80
2022-09-26T18:55:45.697Z,909.00
2022-09-26T18:58:25.743Z,909.10
2022-09-26T19:00:56.725Z,908.30
2022-09-26T19:03:26.740Z,913.07
2022-09-26T19:06:01.328Z,909.67
2022-09-26T19:08:33.483Z,907.07
2022-09-26T19:11:03.865Z,910.77
2022-09-26T19:13:33.791Z,909.43
2022-09-26T19:16:02.177Z,912.60
2022-09-26T19:18:30.395Z,919.03
2022-09-26T19:20:58.500Z,909.03
2022-09-26T19:23:30.554Z,910.83
2022-09-26T19:25:58.765Z,914.93
2022-09-26T19:28:29.223Z,920.17
2022-09-26T19:30:58.832Z,914.87
2022-09-26T19:33:27.212Z,918.37
2022-09-26T19:35:55.563Z,914.63
2022-09-26T19:38:25.418Z,914.27
2022-09-26T19:40:53.963Z,924.40
2022-09-26T19:43:23.114Z,916.07
2022-09-26T19:45:53.698Z,918.07
2022-09-26T19:48:23.815Z,916.10
2022-09-26T19:50:52.678Z,920.77
2022-09-26T19:53:22.914Z,917.37
2022-09-26T19:55:51.489Z,921.00
2022-09-26T19:58:21.298Z,917.40
2022-09-26T20:00:51.241Z,921.00
2022-09-26T20:03:21.100Z,926.50
2022-09-26T20:05:51.057Z,920.73
2022-09-26T20:08:22.086Z,915.17
2022-09-26T20:10:50.758Z,923.00
2022-09-26T20:13:19.617Z,917.00
2022-09-26T20:15:48.469Z,918.63
2022-09-26T20:18:20.758Z,919.37
2022-09-26T20:20:52.935Z,916.37
2022-09-26T20:23:23.104Z,925.27
2022-09-26T20:26:03.445Z,920.33
2022-09-26T20:28:32.099Z,918.27
2022-09-26T20:31:01.061Z,916.70
2022-09-26T20:33:30.056Z,916.73
2022-09-26T20:36:08.207Z,919.40
2022-09-26T20:38:39.701Z,922.17
2022-09-26T20:41:13.561Z,918.90
2022-09-26T20:43:47.903Z,917.53
2022-09-26T20:46:16.500Z,912.47
2022-09-26T20:48:45.394Z,913.53
2022-09-26T20:51:20.584Z,922.63
2022-09-26T20:53:49.821Z,914.83
2022-09-26T20:56:21.939Z,919.43
2022-09-26T20:58:50.523Z,917.27
2022-09-26T21:01:21.247Z,924.13
2022-09-26T21:03:51.782Z,933.33
2022-09-26T21:06:22.964Z,940.93
2022-09-26T21:08:51.231Z,931.87
2022-09-26T21:11:23.732Z,934.13
2022-09-26T21:13:57.735Z,926.93
2022-09-26T21:16:36.170Z,923.00
2022-09-26T21:19:08.397Z,926.10
2022-09-26T21:21:38.732Z,930.23
2022-09-26T21:24:31.094Z,914.47
2022-09-26T21:26:59.476Z,918.63
2022-09-26T21:29:28.786Z,922.67
2022-09-26T21:32:02.973Z,924.33
2022-09-26T21:34:33.321Z,924.40
2022-09-26T21:37:03.890Z,924.40
2022-09-26T21:39:32.529Z,923.47
2022-09-26T21:42:04.449Z,922.23
2022-09-26T21:44:37.944Z,924.33
2022-09-26T21:47:06.215Z,923.47
2022-09-26T21:49:34.578Z,918.57
2022-09-26T21:52:07.567Z,916.33
2022-09-26T21:54:38.663Z,921.03
2022-09-26T21:57:08.869Z,919.63
2022-09-26T21:59:38.315Z,919.27
2022-09-26T22:02:06.708Z,921.37
2022-09-26T22:04:35.268Z,917.43
2022-09-26T22:07:05.118Z,919.23
2022-09-26T22:09:33.649Z,916.50
2022-09-26T22:12:02.227Z,915.23
2022-09-26T22:14:30.373Z,916.07
2022-09-26T22:16:59.123Z,911.17
2022-09-26T22:19:32.789Z,910.90
2022-09-26T22:22:00.991Z,912.03
2022-09-26T22:24:31.990Z,915.20
2022-09-26T22:27:00.283Z,912.07
2022-09-26T22:29:28.486Z,915.67
2022-09-26T22:31:56.737Z,910.00
2022-09-26T22:34:25.680Z,916.80
2022-09-26T22:36:54.082Z,914.57
2022-09-26T22:39:22.409Z,918.67
2022-09-26T22:41:52.796Z,912.20
2022-09-26T22:44:21.197Z,912.53
2022-09-26T22:46:49.325Z,908.07
2022-09-26T22:49:17.438Z,915.73
2022-09-26T22:51:45.611Z,902.57
2022-09-26T22:54:13.761Z,909.97
2022-09-26T22:56:41.958Z,909.80
2022-09-26T22:59:11.606Z,911.20
2022-09-26T23:01:39.860Z,912.10
2022-09-26T23:04:08.307Z,910.60
2022-09-26T23:06:36.516Z,910.17
2022-09-26T23:09:05.230Z,912.07
2022-09-26T23:11:33.498Z,914.77
2022-09-26T23:14:01.645Z,916.07
2022-09-26T23:16:31.173Z,918.97
2022-09-26T23:18:59.431Z,913.83
2022-09-26T23:21:28.423Z,912.83
2022-09-26T23:23:58.204Z,910.30
2022-09-26T23:26:27.954Z,912.50
2022-09-26T23:28:57.239Z,915.97
2022-09-26T23:31:26.298Z,908.00
2022-09-26T23:33:56.332Z,904.43
2022-09-26T23:36:25.378Z,908.83
2022-09-26T23:38:53.949Z,909.07
2022-09-26T23:41:22.430Z,921.03
2022-09-26T23:43:50.619Z,922.93
2022-09-26T23:46:18.996Z,923.50
2022-09-26T23:48:47.125Z,921.40
2022-09-26T23:51:16.544Z,924.90
2022-09-26T23:53:44.666Z,924.63
2022-09-26T23:56:14.108Z,926.20
2022-09-26T23:58:42.505Z,916.10
